TimeEST,TemperatureF,Dew PointF,Humidity,Sea Level PressureIn,VisibilityMPH,Wind Direction,Wind SpeedMPH,Gust SpeedMPH,PrecipitationIn,Events,Conditions,WindDirDegrees,DateUTC
12:58 AM,39.9,34.7,82,29.70,10.0,SW,17.3,-,N/A,,Partly Cloudy,220,2014-02-19 05:58:00
1:58 AM,38.1,35.8,91,29.69,10.0,SW,12.7,-,N/A,,Partly Cloudy,230,2014-02-19 06:58:00
2:58 AM,36.1,36.1,100,29.68,10.0,WSW,11.5,-,N/A,,Clear,240,2014-02-19 07:58:00
3:58 AM,39.0,37.0,93,29.68,10.0,WSW,13.8,-,N/A,,Clear,250,2014-02-19 08:58:00
4:58 AM,37.4,36.1,95,29.68,10.0,WSW,12.7,-,N/A,,Clear,250,2014-02-19 09:58:00
5:58 AM,34.5,34.3,99,29.71,10.0,West,15.0,-,N/A,,Clear,270,2014-02-19 10:58:00
6:58 AM,33.1,32.5,98,29.75,10.0,WNW,12.7,-,N/A,,Clear,290,2014-02-19 11:58:00
7:58 AM,31.1,31.1,100,29.81,10.0,West,13.8,-,N/A,,Clear,280,2014-02-19 12:58:00
8:58 AM,32.7,31.8,96,29.86,10.0,WNW,10.4,-,N/A,,Overcast,290,2014-02-19 13:58:00
9:58 AM,34.7,31.6,89,29.90,10.0,WNW,11.5,-,N/A,,Clear,290,2014-02-19 14:58:00
10:30 AM,37.4,32.0,81,29.90,10.0,West,13.8,-,N/A,,Clear,260,2014-02-19 15:30:00
10:58 AM,36.7,32.4,84,29.93,10.0,WNW,8.1,-,N/A,,Clear,300,2014-02-19 15:58:00
11:28 AM,35.6,32.0,87,29.93,10.0,West,12.7,-,N/A,,Partly Cloudy,260,2014-02-19 16:28:00
11:58 AM,36.1,33.6,91,29.96,10.0,WSW,12.7,-,N/A,,Partly Cloudy,250,2014-02-19 16:58:00
12:58 PM,37.0,34.5,91,29.97,10.0,WSW,9.2,-,N/A,,Clear,250,2014-02-19 17:58:00
1:58 PM,37.0,35.2,93,29.99,10.0,West,9.2,-,N/A,,Clear,260,2014-02-19 18:58:00
2:58 PM,38.1,34.9,88,30.00,10.0,West,9.2,-,N/A,,Clear,260,2014-02-19 19:58:00
3:58 PM,37.6,35.1,91,30.04,10.0,SW,10.4,-,N/A,,Clear,230,2014-02-19 20:58:00
4:58 PM,36.3,34.9,95,30.07,10.0,WSW,9.2,-,N/A,,Clear,240,2014-02-19 21:58:00
5:58 PM,34.5,33.6,97,30.06,10.0,SSW,4.6,-,N/A,,Clear,210,2014-02-19 22:58:00
6:58 PM,32.5,32.5,100,30.07,10.0,SSE,4.6,-,N/A,,Partly Cloudy,150,2014-02-19 23:58:00
7:58 PM,30.2,30.2,100,30.05,10.0,ESE,6.9,-,N/A,,Clear,120,2014-02-20 00:58:00
8:58 PM,32.0,32.0,100,30.04,10.0,ESE,5.8,-,N/A,,Clear,120,2014-02-20 01:58:00
9:58 PM,31.1,31.1,100,30.04,10.0,SE,5.8,-,N/A,,Clear,140,2014-02-20 02:58:00
10:58 PM,31.6,31.6,100,30.03,10.0,SSE,5.8,-,N/A,,Clear,150,2014-02-20 03:58:00
11:58 PM,32.4,32.4,100,30.03,10.0,SE,8.1,-,N/A,,Partly Cloudy,140,2014-02-20 04:58:00